Singapore, Singapore

12:12 PM SGT on March 31, 2015 (GMT +0800)
Changi | | Change Station
CLOSE
Current Station
Airport
Location: Singapore,
Elevation: 52 ft
Nearby Weather Stations

Elev 52 ft 1.37 °N, 103.98 °E | Updated 12 minutes ago

Mostly Cloudy
Mostly Cloudy
88 °F
Feels Like 100 °F
N
6
Wind Variable Wind from NE

Today
High -- | Low -- °F
--% Chance of Precip.
Yesterday
High -- | Low -- °F
Precip. -- in
7:04 AM 7:12 PM
Waxing Gibbous, 84% visible
Pressure 29.89 in
Visibility 6.2 miles
Clouds Few 2000 ft
Mostly Cloudy 16000 ft
Heat Index 100 °F
Dew Point 77 °F
Humidity 70%
Rainfall 0.00 in
Snow Depth Not available.
UV 8 out of 12
Pollen Not available.
Air Quality Not available.
Flu Activity Not available.
METAR WSSS 310400Z 05005KT 340V100 9999 VCSH FEW020TCU BKN160 31/25 Q1012 TEMPO FM0415 TL0500 4000 SHRA

More Conditions Fewer Conditions

Pressure 29.89 in
Visibility 6.2 miles
Clouds Few 2000 ft
Mostly Cloudy 16000 ft
Heat Index 100 °F
Dew Point 77 °F
Humidity 70%
Rainfall 0.00 in
Snow Depth Not available.
UV 8 out of 12
Pollen Not available.
Air Quality Not available.
Flu Activity Not available.
METAR WSSS 310400Z 05005KT 340V100 9999 VCSH FEW020TCU BKN160 31/25 Q1012 TEMPO FM0415 TL0500 4000 SHRA

More Conditions Fewer Conditions

10-Day Weather Forecast

Almanac

Astronomy

Mar. 31, 2015 Rise Set
Actual Time
Civil Twilight
Nautical Twilight
Astronomical Twilight
Moon
Length of Visible Light
Length of Day
Tomorrow will be .
, % of the Moon is Illuminated

Today's Extremes

Country Highs Country Lows

Community

WunderPhotos

Upload Photos

1,809,715 photos uploaded!

WunderBlogs® & News

Nearby

Air Quality

  Air Quality AQ Index Pollutant
Not available.

Snow Depth

Station Depth Elevation

Earthquake Activity

City Distance Mag. Time & Date
Minimum magnitude displayed is 2.5.

Coastal Water Temperatures

Place Temperature

Stations

Nearby Weather Stations

Station Location Temp. Windchill Dew Point Humidity Wind Precip. Elev Updated Type